createdAt,value
2019-03-27T06:13:00.356Z,4.53
2019-03-27T06:14:00.200Z,5.18
2019-03-27T06:15:00.132Z,5.25
2019-03-27T06:16:00.067Z,5.49
2019-03-27T06:17:00.020Z,5.36
2019-03-27T06:18:12.495Z,5.29
2019-03-27T06:19:01.201Z,5.00
2019-03-27T06:19:59.840Z,4.94
2019-03-27T06:20:59.865Z,4.31
2019-03-27T06:21:59.710Z,3.70
2019-03-27T06:22:59.663Z,2.64
2019-03-27T06:24:23.809Z,2.36
2019-03-27T06:25:23.736Z,2.55
2019-03-27T06:26:12.661Z,2.54
2019-03-27T06:27:12.659Z,2.14
2019-03-27T06:28:12.634Z,2.15
2019-03-27T06:29:15.723Z,2.01
2019-03-27T06:30:12.614Z,1.39
2019-03-27T06:31:12.607Z,0.92
2019-03-27T06:32:12.583Z,0.70
2019-03-27T06:33:12.571Z,0.33
2019-03-27T06:34:12.566Z,0.13
2019-03-27T06:35:12.593Z,0.01
2019-03-27T06:36:12.764Z,-0.18
2019-03-27T06:37:12.534Z,-0.41
2019-03-27T06:38:12.518Z,-0.53
2019-03-27T06:39:12.507Z,-0.78
2019-03-27T06:40:12.506Z,-0.82
2019-03-27T06:41:12.506Z,-0.81
2019-03-27T06:42:12.490Z,-0.74
2019-03-27T06:43:12.469Z,-0.62
2019-03-27T06:44:12.458Z,-0.72
2019-03-27T06:45:12.442Z,-0.82
2019-03-27T06:46:12.477Z,-0.80
2019-03-27T06:47:12.430Z,-0.82
2019-03-27T06:48:25.473Z,-0.81
2019-03-27T06:49:13.408Z,-0.89
2019-03-27T06:50:12.412Z,-0.89
2019-03-27T06:51:12.395Z,-0.91
2019-03-27T06:52:12.471Z,-0.82
2019-03-27T06:53:12.496Z,-0.84
2019-03-27T06:54:12.380Z,-0.72
2019-03-27T06:55:12.341Z,-0.60
2019-03-27T06:56:19.306Z,-0.42
2019-03-27T06:57:12.323Z,-0.33
2019-03-27T06:58:12.319Z,-0.27
2019-03-27T06:59:12.299Z,-0.48
2019-03-27T07:00:12.287Z,-0.59
2019-03-27T07:01:12.270Z,-0.64
2019-03-27T07:02:12.259Z,-0.62
2019-03-27T07:03:12.301Z,-0.64
2019-03-27T07:04:12.253Z,-0.63
2019-03-27T07:05:12.233Z,-0.62
2019-03-27T07:06:12.222Z,-0.60
2019-03-27T07:07:12.210Z,-0.62
2019-03-27T07:08:12.202Z,-0.49
2019-03-27T07:09:12.200Z,-0.28
2019-03-27T07:10:12.180Z,-0.28
2019-03-27T07:11:12.162Z,-0.21
2019-03-27T07:12:20.968Z,-0.20
2019-03-27T07:13:13.151Z,-0.06
2019-03-27T07:14:12.185Z,-0.09
2019-03-27T07:15:12.122Z,-0.05
2019-03-27T07:16:12.116Z,-0.24
2019-03-27T07:17:12.120Z,-0.44
2019-03-27T07:18:12.091Z,-0.51
2019-03-27T07:19:12.093Z,-0.62
2019-03-27T07:20:12.087Z,-0.46
2019-03-27T07:21:12.060Z,-0.72
2019-03-27T07:22:12.050Z,-0.59
2019-03-27T07:23:12.051Z,-0.62
2019-03-27T07:24:12.050Z,-0.57
2019-03-27T07:25:12.053Z,-0.60
2019-03-27T07:26:12.010Z,-0.77
2019-03-27T07:27:24.574Z,-1.03
2019-03-27T07:28:11.992Z,-0.94
2019-03-27T07:29:11.972Z,-0.80
2019-03-27T07:30:11.962Z,-0.75
2019-03-27T07:31:11.992Z,-0.74
2019-03-27T07:32:11.947Z,-0.60
2019-03-27T07:33:11.933Z,-0.57
2019-03-27T07:34:11.931Z,-0.48
2019-03-27T07:35:12.005Z,-0.54
2019-03-27T07:36:11.901Z,-0.48
2019-03-27T07:37:11.897Z,-0.44
2019-03-27T07:38:11.877Z,-0.28
2019-03-27T07:39:11.864Z,-0.03
2019-03-27T07:40:11.851Z,-0.21
2019-03-27T07:41:11.860Z,-0.23
2019-03-27T07:42:11.894Z,-0.18
2019-03-27T07:43:11.824Z,-0.05
2019-03-27T07:44:11.890Z,0.02
2019-03-27T07:45:11.801Z,0.05
2019-03-27T07:46:11.787Z,0.09
2019-03-27T07:47:11.783Z,0.16
2019-03-27T07:48:11.800Z,0.30
2019-03-27T07:49:11.757Z,0.33
2019-03-27T07:50:11.780Z,0.23
2019-03-27T07:51:11.834Z,0.29
2019-03-27T07:52:11.738Z,0.34
2019-03-27T07:53:11.730Z,0.47
2019-03-27T07:54:11.777Z,0.55
2019-03-27T07:55:19.227Z,0.64
2019-03-27T07:56:12.680Z,0.95
2019-03-27T07:57:11.678Z,0.96
2019-03-27T07:58:24.471Z,1.10
2019-03-27T07:59:11.654Z,1.24
2019-03-27T08:00:11.647Z,1.10
2019-03-27T08:01:11.629Z,0.95
2019-03-27T08:02:11.615Z,0.96
2019-03-27T08:03:11.610Z,0.95
2019-03-27T08:04:14.229Z,0.96
2019-03-27T08:05:11.588Z,1.00
2019-03-27T08:06:11.596Z,1.03
2019-03-27T08:07:11.758Z,1.04
2019-03-27T08:08:11.629Z,1.09
2019-03-27T08:09:11.548Z,1.16
2019-03-27T08:10:11.532Z,1.12
2019-03-27T08:11:11.602Z,1.16
2019-03-27T08:12:11.508Z,1.07
2019-03-27T08:13:11.511Z,1.10
2019-03-27T08:14:11.502Z,1.18
2019-03-27T08:15:11.509Z,1.45
2019-03-27T08:16:11.471Z,1.46
2019-03-27T08:17:11.476Z,1.22
2019-03-27T08:18:11.447Z,1.22
2019-03-27T08:19:11.435Z,1.30
2019-03-27T08:20:11.448Z,1.28
2019-03-27T08:21:11.432Z,1.28
2019-03-27T08:22:11.572Z,1.39
2019-03-27T08:23:11.394Z,1.30
2019-03-27T08:24:11.378Z,1.16
2019-03-27T08:25:11.421Z,1.02
2019-03-27T08:26:11.354Z,1.10
2019-03-27T08:27:14.462Z,1.02
2019-03-27T08:28:11.341Z,1.16
2019-03-27T08:29:24.851Z,1.09
2019-03-27T08:30:11.317Z,1.20
2019-03-27T08:31:11.301Z,1.25
2019-03-27T08:32:11.295Z,1.25
2019-03-27T08:33:11.329Z,1.32
2019-03-27T08:34:11.272Z,1.40
2019-03-27T08:35:11.258Z,1.48
2019-03-27T08:36:11.288Z,1.46
2019-03-27T08:37:11.316Z,1.49
2019-03-27T08:38:11.231Z,1.48
2019-03-27T08:39:11.302Z,1.61
2019-03-27T08:40:11.204Z,1.75
2019-03-27T08:41:11.199Z,1.84
2019-03-27T08:42:11.209Z,1.97
2019-03-27T08:43:21.167Z,1.79
2019-03-27T08:44:12.153Z,1.66
2019-03-27T08:45:11.147Z,1.76
2019-03-27T08:46:11.145Z,1.76
2019-03-27T08:47:11.133Z,1.95
2019-03-27T08:48:11.128Z,1.93
2019-03-27T08:49:21.716Z,1.86
2019-03-27T08:50:12.089Z,1.74
2019-03-27T08:51:11.101Z,1.75
2019-03-27T08:52:11.097Z,1.57
2019-03-27T08:53:11.099Z,1.50
2019-03-27T08:54:11.049Z,1.49
2019-03-27T08:55:13.488Z,1.68
2019-03-27T08:56:11.033Z,1.78
2019-03-27T08:57:11.015Z,1.84
2019-03-27T08:58:11.085Z,1.58
2019-03-27T08:59:11.014Z,1.46
2019-03-27T09:00:24.118Z,1.22
2019-03-27T09:01:10.968Z,1.38
2019-03-27T09:02:10.992Z,1.31
2019-03-27T09:03:10.956Z,1.36
2019-03-27T09:04:10.989Z,1.25
2019-03-27T09:05:10.922Z,1.34
2019-03-27T09:06:10.912Z,1.40
2019-03-27T09:07:10.905Z,1.46
2019-03-27T09:08:10.931Z,1.40
2019-03-27T09:09:10.894Z,1.52
2019-03-27T09:10:10.869Z,1.56
2019-03-27T09:11:10.861Z,1.45
2019-03-27T09:12:10.876Z,1.52
2019-03-27T09:13:10.845Z,1.50
2019-03-27T09:14:10.841Z,1.48
2019-03-27T09:15:10.825Z,1.56
2019-03-27T09:16:10.872Z,1.50
2019-03-27T09:17:10.788Z,1.50
2019-03-27T09:18:10.801Z,1.84
2019-03-27T09:19:10.793Z,1.93
2019-03-27T09:20:10.770Z,1.92
2019-03-27T09:21:10.747Z,1.78
2019-03-27T09:22:10.737Z,1.49
2019-03-27T09:23:10.725Z,1.40
2019-03-27T09:24:10.766Z,1.58
2019-03-27T09:25:10.816Z,1.79
2019-03-27T09:26:10.691Z,2.04
2019-03-27T09:27:10.676Z,2.21
2019-03-27T09:28:10.675Z,2.26
2019-03-27T09:29:10.667Z,2.10
2019-03-27T09:30:10.665Z,2.04
2019-03-27T09:31:23.570Z,2.15
2019-03-27T09:32:10.626Z,2.01
2019-03-27T09:33:10.704Z,1.89
2019-03-27T09:34:11.042Z,1.92
2019-03-27T09:35:10.630Z,1.92
2019-03-27T09:36:10.852Z,1.89
2019-03-27T09:37:10.566Z,1.92
2019-03-27T09:38:10.560Z,1.97
2019-03-27T09:39:10.575Z,2.05
2019-03-27T09:40:10.534Z,2.07
2019-03-27T09:41:10.572Z,2.04
2019-03-27T09:42:10.509Z,2.01
2019-03-27T09:43:10.499Z,2.03
2019-03-27T09:44:10.496Z,1.85
2019-03-27T09:45:10.490Z,1.61
2019-03-27T09:46:10.481Z,1.71
2019-03-27T09:47:10.500Z,1.76
2019-03-27T09:48:10.445Z,1.75
2019-03-27T09:49:10.432Z,1.92
2019-03-27T09:50:10.436Z,1.93
2019-03-27T09:51:10.506Z,2.03
2019-03-27T09:52:10.444Z,2.08
2019-03-27T09:53:10.400Z,2.14
2019-03-27T09:54:10.384Z,2.14
2019-03-27T09:55:10.461Z,2.23
2019-03-27T09:56:19.131Z,2.23
2019-03-27T09:57:11.389Z,2.14
2019-03-27T09:58:10.350Z,2.04
2019-03-27T09:59:10.358Z,2.14
2019-03-27T10:00:10.318Z,2.14
2019-03-27T10:01:10.309Z,2.00
2019-03-27T10:02:23.060Z,2.07
2019-03-27T10:03:10.291Z,2.19
2019-03-27T10:04:10.276Z,2.26
2019-03-27T10:05:10.272Z,2.26
2019-03-27T10:06:10.248Z,2.52
2019-03-27T10:07:10.453Z,2.55
2019-03-27T10:08:10.378Z,2.46
2019-03-27T10:09:10.251Z,2.57
2019-03-27T10:10:10.243Z,2.40
2019-03-27T10:11:10.240Z,2.34
2019-03-27T10:12:10.189Z,2.05
2019-03-27T10:13:10.174Z,2.03
2019-03-27T10:14:10.538Z,1.92
2019-03-27T10:15:10.170Z,2.03
2019-03-27T10:16:10.144Z,1.95
2019-03-27T10:17:10.140Z,2.12
2019-03-27T10:18:10.121Z,2.18
2019-03-27T10:19:10.128Z,2.23
2019-03-27T10:20:13.514Z,2.14
2019-03-27T10:21:10.090Z,2.08
2019-03-27T10:22:10.082Z,2.15
2019-03-27T10:23:10.067Z,2.25
2019-03-27T10:24:10.056Z,2.23
2019-03-27T10:25:10.104Z,2.26
2019-03-27T10:26:10.059Z,2.25
2019-03-27T10:27:10.016Z,2.21
2019-03-27T10:28:10.052Z,2.33
2019-03-27T10:29:10.042Z,2.50
2019-03-27T10:30:10.047Z,2.50
2019-03-27T10:31:09.981Z,2.52
2019-03-27T10:32:09.962Z,2.34
2019-03-27T10:33:22.785Z,2.34
2019-03-27T10:34:09.953Z,2.54
2019-03-27T10:35:10.044Z,2.65
2019-03-27T10:36:10.025Z,2.52
2019-03-27T10:37:09.911Z,2.43
2019-03-27T10:38:09.931Z,2.50
2019-03-27T10:39:09.892Z,2.57
2019-03-27T10:40:09.873Z,2.54
2019-03-27T10:41:09.869Z,2.54
2019-03-27T10:42:09.966Z,2.50
2019-03-27T10:43:09.856Z,2.52
2019-03-27T10:44:09.830Z,2.57
2019-03-27T10:45:09.862Z,2.57
2019-03-27T10:46:09.875Z,2.41
2019-03-27T10:47:09.801Z,2.52
2019-03-27T10:48:09.847Z,2.54
2019-03-27T10:49:09.866Z,2.51
2019-03-27T10:50:17.360Z,2.40
2019-03-27T10:51:10.762Z,2.16
2019-03-27T10:52:09.768Z,2.15
2019-03-27T10:53:09.732Z,2.04
2019-03-27T10:54:09.774Z,2.12
2019-03-27T10:55:09.718Z,2.40
2019-03-27T10:56:09.700Z,2.21
2019-03-27T10:57:09.807Z,2.19
2019-03-27T10:58:09.702Z,2.32
2019-03-27T10:59:09.669Z,2.39
2019-03-27T11:00:09.856Z,2.57
2019-03-27T11:01:09.644Z,2.43
2019-03-27T11:02:09.634Z,2.41
2019-03-27T11:03:09.630Z,2.41
2019-03-27T11:04:22.034Z,2.37
2019-03-27T11:05:09.638Z,2.36
2019-03-27T11:06:09.624Z,2.39
2019-03-27T11:07:09.729Z,2.65
2019-03-27T11:08:11.363Z,2.75
2019-03-27T11:09:09.571Z,2.73
2019-03-27T11:10:09.575Z,2.85
2019-03-27T11:11:09.534Z,2.76
2019-03-27T11:12:09.531Z,2.77
2019-03-27T11:13:09.516Z,2.61
2019-03-27T11:14:09.496Z,2.73
2019-03-27T11:15:09.494Z,2.72
2019-03-27T11:16:09.486Z,2.61
2019-03-27T11:17:09.481Z,2.77
2019-03-27T11:18:09.455Z,2.76
2019-03-27T11:19:09.451Z,2.76
2019-03-27T11:20:09.862Z,2.85
2019-03-27T11:21:10.070Z,2.83
2019-03-27T11:22:09.754Z,2.83
2019-03-27T11:23:09.402Z,2.97
2019-03-27T11:24:09.419Z,3.00
2019-03-27T11:25:09.387Z,2.98
2019-03-27T11:26:09.383Z,2.91
2019-03-27T11:27:09.371Z,2.97
2019-03-27T11:28:09.365Z,3.00
2019-03-27T11:29:09.336Z,3.15
2019-03-27T11:30:09.324Z,3.13
2019-03-27T11:31:09.316Z,2.98
2019-03-27T11:32:09.495Z,2.98
2019-03-27T11:33:09.357Z,3.06
2019-03-27T11:34:09.285Z,3.12
2019-03-27T11:35:22.003Z,3.21
2019-03-27T11:36:09.261Z,3.33
2019-03-27T11:37:09.248Z,3.46
2019-03-27T11:38:09.284Z,3.53
2019-03-27T11:39:09.229Z,3.53
2019-03-27T11:40:09.237Z,3.40
2019-03-27T11:41:12.129Z,3.34
2019-03-27T11:42:09.191Z,3.22
2019-03-27T11:43:10.087Z,3.41
2019-03-27T11:44:12.507Z,3.27
2019-03-27T11:45:09.159Z,3.16
2019-03-27T11:46:09.162Z,3.30
2019-03-27T11:47:09.145Z,3.37
2019-03-27T11:48:09.133Z,3.46
2019-03-27T11:49:09.123Z,3.59
2019-03-27T11:50:09.114Z,3.66
2019-03-27T11:51:09.094Z,3.63
2019-03-27T11:52:09.086Z,3.66
2019-03-27T11:53:09.082Z,3.56
2019-03-27T11:54:09.084Z,3.41
2019-03-27T11:55:09.096Z,3.41
2019-03-27T11:56:09.094Z,3.50
2019-03-27T11:57:09.040Z,3.56
2019-03-27T11:58:09.020Z,3.34
2019-03-27T11:59:09.011Z,3.31
2019-03-27T12:00:08.996Z,3.48
2019-03-27T12:01:09.030Z,3.61
2019-03-27T12:02:08.986Z,3.46
2019-03-27T12:03:08.976Z,3.27
2019-03-27T12:04:08.960Z,3.15
2019-03-27T12:05:08.950Z,3.05
2019-03-27T12:06:20.661Z,3.05
2019-03-27T12:07:08.939Z,3.01
2019-03-27T12:08:08.916Z,3.12
2019-03-27T12:09:08.910Z,3.03
2019-03-27T12:10:08.905Z,3.18
2019-03-27T12:11:08.878Z,3.29
2019-03-27T12:12:08.930Z,3.50
2019-03-27T12:13:08.862Z,3.64
2019-03-27T12:14:12.073Z,3.74
2019-03-27T12:15:08.843Z,3.82
2019-03-27T12:16:08.837Z,3.85
2019-03-27T12:17:08.923Z,3.88
2019-03-27T12:18:08.806Z,3.91
2019-03-27T12:19:08.799Z,4.02
2019-03-27T12:20:08.788Z,4.12
2019-03-27T12:21:08.783Z,4.03
2019-03-27T12:22:08.772Z,4.04
2019-03-27T12:23:08.765Z,4.06
2019-03-27T12:24:08.739Z,4.00
2019-03-27T12:25:08.736Z,3.91
2019-03-27T12:26:08.727Z,3.99
2019-03-27T12:27:08.712Z,3.92
2019-03-27T12:28:08.772Z,3.91
2019-03-27T12:29:08.730Z,3.86
2019-03-27T12:30:08.681Z,3.94
2019-03-27T12:31:08.721Z,3.92
2019-03-27T12:32:08.653Z,3.92
2019-03-27T12:33:08.648Z,3.95
2019-03-27T12:34:08.661Z,3.96
2019-03-27T12:35:08.644Z,3.92
2019-03-27T12:36:08.628Z,3.92
2019-03-27T12:37:21.683Z,3.82
2019-03-27T12:38:08.589Z,3.91
2019-03-27T12:39:08.627Z,3.96
2019-03-27T12:40:11.788Z,3.96
2019-03-27T12:41:08.565Z,4.02
2019-03-27T12:42:08.552Z,4.12
2019-03-27T12:43:08.548Z,4.16
2019-03-27T12:44:08.526Z,4.13
2019-03-27T12:45:08.556Z,4.22
2019-03-27T12:46:08.513Z,4.12
2019-03-27T12:47:08.498Z,4.12
2019-03-27T12:48:08.547Z,4.02
2019-03-27T12:49:08.480Z,4.00
2019-03-27T12:50:08.476Z,4.02
2019-03-27T12:51:13.136Z,3.96
2019-03-27T12:52:09.449Z,3.99
2019-03-27T12:53:08.444Z,3.88
2019-03-27T12:54:08.422Z,3.99
2019-03-27T12:55:08.481Z,4.03
2019-03-27T12:56:08.407Z,4.07
2019-03-27T12:57:08.393Z,3.96
2019-03-27T12:58:11.591Z,3.95
2019-03-27T12:59:08.366Z,4.03
2019-03-27T13:00:08.363Z,4.06
2019-03-27T13:01:08.383Z,4.13
2019-03-27T13:02:08.332Z,4.16
2019-03-27T13:03:08.322Z,4.18
2019-03-27T13:04:08.321Z,4.30
2019-03-27T13:05:08.306Z,4.16
2019-03-27T13:06:08.289Z,4.13
2019-03-27T13:07:08.289Z,4.12
2019-03-27T13:08:21.551Z,4.03
2019-03-27T13:09:08.256Z,4.02
2019-03-27T13:10:08.254Z,4.09
2019-03-27T13:11:08.239Z,4.03
2019-03-27T13:12:08.272Z,4.02
2019-03-27T13:13:08.209Z,4.13
2019-03-27T13:14:08.208Z,4.02
2019-03-27T13:15:08.189Z,4.04
2019-03-27T13:16:08.177Z,4.14
2019-03-27T13:17:08.173Z,4.12
2019-03-27T13:18:08.201Z,4.14
2019-03-27T13:19:08.151Z,4.09
2019-03-27T13:20:08.144Z,4.10
2019-03-27T13:21:08.126Z,3.99
2019-03-27T13:22:08.112Z,3.99
2019-03-27T13:23:08.105Z,4.10
2019-03-27T13:24:08.107Z,4.06
2019-03-27T13:25:08.078Z,3.99
2019-03-27T13:26:08.075Z,4.02
2019-03-27T13:27:08.066Z,4.10
2019-03-27T13:28:08.053Z,3.99
2019-03-27T13:29:08.052Z,3.95
2019-03-27T13:30:08.035Z,4.02
2019-03-27T13:31:08.018Z,4.09
2019-03-27T13:32:08.016Z,4.13
2019-03-27T13:33:07.994Z,4.12
2019-03-27T13:34:07.998Z,4.06
2019-03-27T13:35:08.057Z,4.03
2019-03-27T13:36:07.961Z,4.00
2019-03-27T13:37:07.954Z,4.06
2019-03-27T13:38:07.946Z,3.91
2019-03-27T13:39:20.215Z,3.85
2019-03-27T13:40:07.969Z,3.81
2019-03-27T13:41:07.953Z,3.64
2019-03-27T13:42:07.921Z,3.86
2019-03-27T13:43:07.890Z,3.95
2019-03-27T13:44:07.923Z,3.94
2019-03-27T13:45:07.880Z,3.91
2019-03-27T13:46:07.856Z,3.85
2019-03-27T13:47:08.101Z,3.94
2019-03-27T13:48:07.843Z,3.86
2019-03-27T13:49:07.838Z,3.92
2019-03-27T13:50:07.812Z,3.96
2019-03-27T13:51:07.829Z,4.09
2019-03-27T13:52:07.810Z,4.09
2019-03-27T13:53:07.824Z,4.16
2019-03-27T13:54:07.774Z,4.16
2019-03-27T13:55:07.763Z,4.13
2019-03-27T13:56:07.821Z,4.21
2019-03-27T13:57:07.764Z,4.31
2019-03-27T13:58:07.769Z,4.21
2019-03-27T13:59:07.716Z,4.10
2019-03-27T14:00:07.710Z,3.96
2019-03-27T14:01:09.119Z,3.95
2019-03-27T14:02:07.819Z,3.94
2019-03-27T14:03:07.675Z,3.96
2019-03-27T14:04:07.660Z,3.88
2019-03-27T14:05:07.655Z,4.00
2019-03-27T14:06:07.649Z,3.99
2019-03-27T14:07:07.627Z,4.02
2019-03-27T14:08:07.627Z,4.00
2019-03-27T14:09:07.611Z,4.03
2019-03-27T14:10:20.848Z,4.02
2019-03-27T14:11:07.593Z,4.10
2019-03-27T14:12:07.579Z,4.10
2019-03-27T14:13:07.576Z,3.99
2019-03-27T14:14:11.629Z,3.94
2019-03-27T14:15:07.544Z,3.84
2019-03-27T14:16:07.528Z,3.88
2019-03-27T14:17:07.527Z,3.92
2019-03-27T14:18:07.516Z,3.84
2019-03-27T14:19:07.540Z,3.88
2019-03-27T14:20:07.488Z,3.95
2019-03-27T14:21:07.475Z,3.95
2019-03-27T14:22:07.475Z,3.92
2019-03-27T14:23:07.458Z,4.02
2019-03-27T14:24:07.448Z,3.91
2019-03-27T14:25:07.438Z,3.96
2019-03-27T14:26:07.418Z,4.00
2019-03-27T14:27:07.409Z,4.07
2019-03-27T14:28:07.399Z,4.02
2019-03-27T14:29:07.394Z,4.00
2019-03-27T14:30:07.411Z,3.89
2019-03-27T14:31:07.367Z,3.96
2019-03-27T14:32:07.355Z,3.91
2019-03-27T14:33:07.344Z,3.81
2019-03-27T14:34:07.340Z,3.84
2019-03-27T14:35:07.324Z,3.71
2019-03-27T14:36:07.328Z,3.70
2019-03-27T14:37:07.305Z,3.76
2019-03-27T14:38:07.329Z,3.81
2019-03-27T14:39:07.280Z,3.71
2019-03-27T14:40:07.277Z,3.77
2019-03-27T14:41:17.655Z,3.68
2019-03-27T14:42:07.249Z,3.70
2019-03-27T14:43:07.245Z,3.64
2019-03-27T14:44:07.234Z,3.64
2019-03-27T14:45:07.216Z,3.67
2019-03-27T14:46:07.251Z,3.77
2019-03-27T14:47:07.212Z,3.70
2019-03-27T14:48:07.202Z,3.84
2019-03-27T14:49:07.181Z,3.85
2019-03-27T14:50:07.163Z,3.86
2019-03-27T14:51:07.205Z,3.81
2019-03-27T14:52:08.413Z,3.76
2019-03-27T14:53:07.199Z,3.81
2019-03-27T14:54:07.137Z,3.76
2019-03-27T14:55:07.108Z,3.73
2019-03-27T14:56:07.106Z,3.63
2019-03-27T14:57:07.089Z,3.61
2019-03-27T14:58:07.101Z,3.58
2019-03-27T14:59:07.064Z,3.59
2019-03-27T15:00:07.068Z,3.56
2019-03-27T15:01:07.124Z,3.46
2019-03-27T15:02:07.038Z,3.46
2019-03-27T15:03:07.032Z,3.52
2019-03-27T15:04:07.019Z,3.55
2019-03-27T15:05:07.009Z,3.40
2019-03-27T15:06:06.990Z,3.41
2019-03-27T15:07:07.038Z,3.49
2019-03-27T15:08:06.967Z,3.34
2019-03-27T15:09:06.964Z,3.30
2019-03-27T15:10:06.949Z,3.22
2019-03-27T15:11:06.941Z,3.15
2019-03-27T15:12:19.299Z,3.21
2019-03-27T15:13:06.912Z,3.22
2019-03-27T15:14:06.900Z,3.16
2019-03-27T15:15:06.902Z,3.21
2019-03-27T15:16:06.894Z,3.13
2019-03-27T15:17:06.868Z,3.16
2019-03-27T15:18:06.865Z,3.12
2019-03-27T15:19:06.842Z,3.16
2019-03-27T15:20:06.829Z,3.06
2019-03-27T15:21:06.821Z,3.11
2019-03-27T15:22:06.810Z,3.01
2019-03-27T15:23:06.842Z,2.97
2019-03-27T15:24:06.791Z,2.87
2019-03-27T15:25:06.794Z,2.88
2019-03-27T15:26:06.769Z,2.80
2019-03-27T15:27:06.896Z,2.75
2019-03-27T15:28:06.752Z,2.70
2019-03-27T15:29:06.746Z,2.68
2019-03-27T15:30:06.737Z,2.58
2019-03-27T15:31:19.468Z,2.59
2019-03-27T15:32:07.706Z,2.57
2019-03-27T15:33:06.686Z,2.57
2019-03-27T15:34:06.715Z,2.50
2019-03-27T15:35:06.668Z,2.52
2019-03-27T15:36:06.656Z,2.52
2019-03-27T15:37:06.644Z,2.58
2019-03-27T15:38:06.634Z,2.55
2019-03-27T15:39:06.632Z,2.44
2019-03-27T15:40:06.629Z,2.40
2019-03-27T15:41:06.599Z,2.40
2019-03-27T15:42:09.180Z,2.33
2019-03-27T15:43:20.054Z,2.33
2019-03-27T15:44:06.571Z,2.28
2019-03-27T15:45:06.572Z,2.26
2019-03-27T15:46:06.558Z,2.08
2019-03-27T15:47:06.539Z,2.15
2019-03-27T15:48:06.530Z,2.03
2019-03-27T15:49:06.518Z,2.07
2019-03-27T15:50:06.520Z,1.97
2019-03-27T15:51:06.501Z,1.98
2019-03-27T15:52:06.491Z,1.92
2019-03-27T15:53:06.475Z,1.85
2019-03-27T15:54:06.472Z,1.79
2019-03-27T15:55:06.454Z,1.81
2019-03-27T15:56:06.454Z,1.71
2019-03-27T15:57:06.447Z,1.68
2019-03-27T15:58:06.426Z,1.76
2019-03-27T15:59:06.421Z,1.75
2019-03-27T16:00:06.404Z,1.64
2019-03-27T16:01:06.388Z,1.63
2019-03-27T16:02:06.423Z,1.78
2019-03-27T16:03:06.366Z,1.74
2019-03-27T16:04:06.363Z,1.66
2019-03-27T16:05:06.354Z,1.71
2019-03-27T16:06:06.345Z,1.68
2019-03-27T16:07:06.325Z,1.52
2019-03-27T16:08:06.354Z,1.57
2019-03-27T16:09:06.302Z,1.38
2019-03-27T16:10:06.296Z,1.39
2019-03-27T16:11:06.294Z,1.42
2019-03-27T16:12:06.272Z,1.24
2019-03-27T16:13:06.258Z,1.14
2019-03-27T16:14:19.850Z,1.04
2019-03-27T16:15:06.236Z,0.99
2019-03-27T16:16:06.233Z,1.00
2019-03-27T16:17:13.199Z,0.78
2019-03-27T16:18:07.205Z,0.86
2019-03-27T16:19:06.202Z,0.70
2019-03-27T16:20:06.202Z,0.71
2019-03-27T16:21:06.173Z,0.49
2019-03-27T16:22:06.173Z,0.49
2019-03-27T16:23:06.153Z,0.51
2019-03-27T16:24:06.961Z,0.33
2019-03-27T16:25:06.140Z,0.31
2019-03-27T16:26:06.129Z,0.23
2019-03-27T16:27:06.108Z,0.26
2019-03-27T16:28:06.110Z,0.24
2019-03-27T16:29:06.086Z,0.24
2019-03-27T16:30:06.113Z,0.34
2019-03-27T16:31:06.068Z,0.18
2019-03-27T16:32:06.062Z,0.24
2019-03-27T16:33:06.049Z,0.20
2019-03-27T16:34:06.030Z,0.33
2019-03-27T16:35:06.024Z,0.24
2019-03-27T16:36:06.022Z,0.26
2019-03-27T16:37:06.012Z,0.26
2019-03-27T16:38:05.993Z,0.24
2019-03-27T16:39:05.976Z,0.20
2019-03-27T16:40:05.969Z,0.31
2019-03-27T16:41:05.997Z,0.19
2019-03-27T16:42:05.951Z,0.31
2019-03-27T16:43:05.937Z,0.31
2019-03-27T16:44:05.928Z,0.36
2019-03-27T16:45:18.098Z,0.40
2019-03-27T16:46:05.903Z,0.42
2019-03-27T16:47:05.899Z,0.40
2019-03-27T16:48:05.886Z,0.45
2019-03-27T16:49:05.879Z,0.45
2019-03-27T16:50:05.932Z,0.52
2019-03-27T16:51:05.850Z,0.48
2019-03-27T16:52:06.011Z,0.49
2019-03-27T16:53:05.825Z,0.56
2019-03-27T16:54:05.818Z,0.51
2019-03-27T16:55:05.805Z,0.56
2019-03-27T16:56:05.797Z,0.66
2019-03-27T16:57:05.786Z,0.70
2019-03-27T16:58:05.788Z,0.77
2019-03-27T16:59:05.764Z,0.76
2019-03-27T17:00:05.752Z,0.71
2019-03-27T17:01:05.743Z,0.70
2019-03-27T17:02:05.729Z,0.71
2019-03-27T17:03:05.756Z,0.68
2019-03-27T17:04:05.709Z,0.70
2019-03-27T17:05:05.704Z,0.82
2019-03-27T17:06:05.689Z,0.82
2019-03-27T17:07:05.679Z,0.71
2019-03-27T17:08:05.672Z,0.63
2019-03-27T17:09:05.676Z,0.67
2019-03-27T17:10:05.644Z,0.58
2019-03-27T17:11:05.652Z,0.66
2019-03-27T17:12:05.624Z,0.67
2019-03-27T17:13:05.614Z,0.66
2019-03-27T17:14:05.609Z,0.64
2019-03-27T17:15:05.617Z,0.76
2019-03-27T17:16:17.294Z,0.64
2019-03-27T17:17:05.566Z,0.73
2019-03-27T17:18:05.563Z,0.66
2019-03-27T17:19:05.552Z,0.68
2019-03-27T17:20:05.542Z,0.81
2019-03-27T17:21:05.582Z,0.81
2019-03-27T17:22:18.544Z,0.70
2019-03-27T17:23:17.382Z,0.77
2019-03-27T17:24:06.504Z,0.67
2019-03-27T17:25:05.488Z,0.71
2019-03-27T17:26:05.479Z,0.67
2019-03-27T17:27:05.469Z,0.59
2019-03-27T17:28:05.454Z,0.66
2019-03-27T17:29:05.455Z,0.61
2019-03-27T17:30:05.438Z,0.58
2019-03-27T17:31:05.425Z,0.59
2019-03-27T17:32:05.585Z,0.67
2019-03-27T17:33:05.404Z,0.63
2019-03-27T17:34:05.386Z,0.59
2019-03-27T17:35:05.382Z,0.52
2019-03-27T17:36:05.371Z,0.51
2019-03-27T17:37:05.356Z,0.52
2019-03-27T17:38:05.358Z,0.55
2019-03-27T17:39:05.337Z,0.55
2019-03-27T17:40:05.325Z,0.56
2019-03-27T17:41:05.316Z,0.49
2019-03-27T17:42:05.378Z,0.61
2019-03-27T17:43:05.333Z,0.55
2019-03-27T17:44:05.280Z,0.56
2019-03-27T17:45:05.271Z,0.61
2019-03-27T17:46:05.265Z,0.55
2019-03-27T17:47:16.847Z,0.51
2019-03-27T17:48:05.242Z,0.49
2019-03-27T17:49:05.235Z,0.55
2019-03-27T17:50:05.217Z,0.52
2019-03-27T17:51:05.205Z,0.48
2019-03-27T17:52:05.206Z,0.56
2019-03-27T17:53:05.189Z,0.51
2019-03-27T17:54:05.211Z,0.51
2019-03-27T17:55:05.166Z,0.48
2019-03-27T17:56:05.159Z,0.47
2019-03-27T17:57:05.141Z,0.47
2019-03-27T17:58:05.133Z,0.47
2019-03-27T17:59:05.122Z,0.45
2019-03-27T18:00:05.128Z,0.44
2019-03-27T18:01:05.146Z,0.39
2019-03-27T18:02:05.087Z,0.44
2019-03-27T18:03:05.081Z,0.31
2019-03-27T18:04:05.069Z,0.31
2019-03-27T18:05:05.096Z,0.36
2019-03-27T18:06:05.052Z,0.27
2019-03-27T18:07:05.043Z,0.31
2019-03-27T18:08:05.025Z,0.37
2019-03-27T18:09:05.030Z,0.33
2019-03-27T18:10:05.002Z,0.33
2019-03-27T18:11:08.029Z,0.34
2019-03-27T18:12:04.981Z,0.18
2019-03-27T18:13:04.977Z,0.15
2019-03-27T18:14:04.966Z,0.16
2019-03-27T18:15:04.961Z,0.16
2019-03-27T18:16:04.945Z,0.19
2019-03-27T18:17:04.940Z,0.13
2019-03-27T18:18:16.786Z,0.16
2019-03-27T18:19:04.907Z,0.13
2019-03-27T18:20:04.905Z,0.15
2019-03-27T18:21:04.896Z,0.19
2019-03-27T18:22:08.003Z,0.19
2019-03-27T18:23:04.873Z,0.19
2019-03-27T18:24:04.858Z,0.18
2019-03-27T18:25:04.844Z,0.12
2019-03-27T18:26:04.848Z,0.19
2019-03-27T18:27:04.828Z,0.11
2019-03-27T18:28:04.837Z,0.16
2019-03-27T18:29:04.809Z,0.11
2019-03-27T18:30:04.793Z,0.12
2019-03-27T18:31:04.792Z,0.11
2019-03-27T18:32:04.774Z,0.11
2019-03-27T18:33:04.768Z,0.08
2019-03-27T18:34:04.788Z,0.08
2019-03-27T18:35:04.741Z,0.08
2019-03-27T18:36:04.729Z,0.15
2019-03-27T18:37:04.723Z,0.09
2019-03-27T18:38:04.711Z,0.11
2019-03-27T18:39:04.705Z,0.12
2019-03-27T18:40:04.736Z,0.08
2019-03-27T18:41:04.679Z,0.18
2019-03-27T18:42:04.663Z,0.13
2019-03-27T18:43:04.652Z,0.08
2019-03-27T18:44:04.651Z,0.12
2019-03-27T18:45:04.632Z,0.15
2019-03-27T18:46:04.646Z,0.13
2019-03-27T18:47:04.615Z,0.16
2019-03-27T18:48:04.607Z,0.13
2019-03-27T18:49:16.421Z,0.16
2019-03-27T18:50:04.587Z,0.15
2019-03-27T18:51:04.578Z,0.16
2019-03-27T18:52:04.560Z,0.13
2019-03-27T18:53:04.553Z,0.16
2019-03-27T18:54:04.542Z,0.16
2019-03-27T18:55:04.526Z,0.15
2019-03-27T18:56:04.536Z,0.20
2019-03-27T18:57:04.513Z,0.13
2019-03-27T18:58:04.494Z,0.11
2019-03-27T18:59:04.483Z,0.12
2019-03-27T19:00:04.478Z,0.12
2019-03-27T19:01:04.477Z,0.16
2019-03-27T19:02:04.498Z,0.18
2019-03-27T19:03:04.455Z,0.19
2019-03-27T19:04:04.432Z,0.12
2019-03-27T19:05:04.425Z,0.15
2019-03-27T19:06:04.414Z,0.15
2019-03-27T19:07:04.409Z,0.13
2019-03-27T19:08:04.401Z,0.18
2019-03-27T19:09:04.381Z,0.12
2019-03-27T19:10:04.371Z,0.18
2019-03-27T19:11:04.355Z,0.13
2019-03-27T19:12:04.388Z,0.16
2019-03-27T19:13:04.341Z,0.16
2019-03-27T19:14:04.335Z,0.12
2019-03-27T19:15:04.317Z,0.13
2019-03-27T19:16:04.347Z,0.12
2019-03-27T19:17:04.295Z,0.11
2019-03-27T19:18:04.316Z,0.18
2019-03-27T19:19:04.268Z,0.12
2019-03-27T19:20:15.652Z,0.15
2019-03-27T19:21:04.249Z,0.19
2019-03-27T19:22:04.243Z,0.18
2019-03-27T19:23:04.232Z,0.20
2019-03-27T19:24:14.703Z,0.18
2019-03-27T19:25:05.203Z,0.15
2019-03-27T19:26:04.212Z,0.19
2019-03-27T19:27:04.189Z,0.18
2019-03-27T19:28:04.219Z,0.06
2019-03-27T19:29:04.211Z,0.20